Time;durP1;ratioP1;P1;durP2;ratioP2;P2;SDS_P1;SDS_P2;PMS_P1;PMS_P2;Temp;Humidity;BMP_temperature;BMP_pressure;BME280_temperature;BME280_humidity;BME280_pressure;Samples;Min_cycle;Max_cycle;Signal;HPM_P1;HPM_P2
2023/10/18 00:01:39;;;;;;;0.00;0.00;;;;;;;;;;5063979;28;20092;-88
2023/10/18 00:04:05;;;;;;;0.00;0.00;;;;;;;;;;5081691;28;20024;-92
2023/10/18 00:06:32;;;;;;;0.00;0.00;;;;;;;;;;5059594;28;20374;-93
2023/10/18 00:08:57;;;;;;;0.00;0.00;;;;;;;;;;5065473;28;20060;-90
2023/10/18 00:11:25;;;;;;;0.00;0.00;;;;;;;;;;5078818;28;20028;-91
2023/10/18 00:13:51;;;;;;;0.00;0.00;;;;;;;;;;5075619;28;20032;-90
2023/10/18 00:16:17;;;;;;;0.00;0.00;;;;;;;;;;5074932;28;20020;-87
2023/10/18 00:18:42;;;;;;;0.00;0.00;;;;;;;;;;5058002;28;20033;-91
2023/10/18 00:21:08;;;;;;;0.00;0.00;;;;;;;;;;5045408;28;20028;-90
2023/10/18 00:23:33;;;;;;;0.00;0.00;;;;;;;;;;5055200;28;20033;-92
2023/10/18 00:26:08;;;;;;;0.00;0.00;;;;;;;;;;5036822;28;20451;-92
2023/10/18 00:28:36;;;;;;;0.00;0.00;;;;;;;;;;5036672;28;20057;-91
2023/10/18 00:31:17;;;;;;;0.00;0.00;;;;;;;;;;5036770;28;20076;-92
2023/10/18 00:33:44;;;;;;;0.00;0.00;;;;;;;;;;5022433;28;20060;-92
2023/10/18 00:36:16;;;;;;;0.00;0.00;;;;;;;;;;5038015;28;20101;-90
2023/10/18 00:38:42;;;;;;;0.00;0.00;;;;;;;;;;5038927;28;20040;-90
2023/10/18 00:41:22;;;;;;;0.00;0.00;;;;;;;;;;5050347;28;20040;-92
2023/10/18 00:43:50;;;;;;;0.00;0.00;;;;;;;;;;5057757;28;20476;-91
2023/10/18 00:46:15;;;;;;;0.00;0.00;;;;;;;;;;5055684;28;20106;-89
2023/10/18 00:48:41;;;;;;;0.00;0.00;;;;;;;;;;5023941;28;20108;-88
2023/10/18 00:51:09;;;;;;;0.00;0.00;;;;;;;;;;5058212;28;20028;-88
2023/10/18 00:53:35;;;;;;;0.00;0.00;;;;;;;;;;5058026;28;20133;-91
2023/10/18 00:56:03;;;;;;;0.00;0.00;;;;;;;;;;5041114;28;20564;-91
2023/10/18 00:58:29;;;;;;;0.00;0.00;;;;;;;;;;5047216;28;20468;-91
2023/10/18 01:00:59;;;;;;;1.10;0.00;;;;;;;;;;5043457;28;20028;-90
2023/10/18 01:03:35;;;;;;;0.00;0.00;;;;;;;;;;5025772;28;20070;-90
2023/10/18 01:06:04;;;;;;;0.00;0.00;;;;;;;;;;5027090;28;20037;-92
2023/10/18 01:08:29;;;;;;;0.00;0.00;;;;;;;;;;5076957;28;20425;-92
2023/10/18 01:11:01;;;;;;;0.00;0.00;;;;;;;;;;5044505;28;20056;-91
2023/10/18 01:13:27;;;;;;;0.20;0.00;;;;;;;;;;5062972;28;20054;-92
2023/10/18 01:15:52;;;;;;;0.00;0.00;;;;;;;;;;5047392;28;20028;-91
2023/10/18 01:18:18;;;;;;;0.00;0.00;;;;;;;;;;5047511;28;20032;-92
2023/10/18 01:20:46;;;;;;;0.00;0.00;;;;;;;;;;5025831;28;20465;-92
2023/10/18 01:23:11;;;;;;;0.05;0.00;;;;;;;;;;5057882;28;20020;-93
2023/10/18 01:25:37;;;;;;;0.00;0.00;;;;;;;;;;5041133;28;20043;-91
2023/10/18 01:28:05;;;;;;;0.00;0.00;;;;;;;;;;5044079;28;20042;-91
2023/10/18 01:30:31;;;;;;;0.00;0.00;;;;;;;;;;5041630;28;20021;-91
2023/10/18 01:32:57;;;;;;;0.00;0.00;;;;;;;;;;5023961;28;20046;-90
2023/10/18 01:35:23;;;;;;;0.00;0.00;;;;;;;;;;5040619;28;20127;-91
2023/10/18 01:37:50;;;;;;;0.00;0.00;;;;;;;;;;5056817;28;20400;-92
2023/10/18 01:40:45;;;;;;;0.00;0.00;;;;;;;;;;5062146;28;20025;-93
2023/10/18 01:43:15;;;;;;;0.00;0.00;;;;;;;;;;5041764;28;20438;-92
2023/10/18 01:45:42;;;;;;;0.00;0.00;;;;;;;;;;5039936;28;20546;-92
2023/10/18 01:48:09;;;;;;;0.00;0.00;;;;;;;;;;5040339;28;20143;-92
2023/10/18 01:50:38;;;;;;;0.00;0.00;;;;;;;;;;5057293;28;20089;-93
2023/10/18 01:53:04;;;;;;;0.00;0.00;;;;;;;;;;5060521;28;20035;-93
2023/10/18 01:55:31;;;;;;;0.00;0.00;;;;;;;;;;5041957;28;20028;-92
2023/10/18 01:57:58;;;;;;;0.00;0.00;;;;;;;;;;5039952;28;20044;-89
2023/10/18 02:00:34;;;;;;;0.00;0.00;;;;;;;;;;5039999;28;20036;-92
2023/10/18 02:03:00;;;;;;;0.00;0.00;;;;;;;;;;5043193;28;20020;-92
2023/10/18 02:05:26;;;;;;;0.00;0.00;;;;;;;;;;5059367;28;20054;-92
2023/10/18 02:07:55;;;;;;;0.00;0.00;;;;;;;;;;5039362;28;20036;-92
2023/10/18 02:10:23;;;;;;;0.00;0.00;;;;;;;;;;5023886;28;20029;-94
2023/10/18 02:12:49;;;;;;;0.00;0.00;;;;;;;;;;5025384;28;20352;-94
2023/10/18 02:15:15;;;;;;;0.00;0.00;;;;;;;;;;5042613;28;20048;-92
2023/10/18 02:17:43;;;;;;;0.00;0.00;;;;;;;;;;5047927;28;20123;-92
2023/10/18 02:20:25;;;;;;;0.00;0.00;;;;;;;;;;5030222;28;20056;-92
2023/10/18 02:22:50;;;;;;;0.00;0.00;;;;;;;;;;5035948;28;20021;-92
2023/10/18 02:25:30;;;;;;;0.00;0.00;;;;;;;;;;5046430;28;20470;-93
2023/10/18 02:27:59;;;;;;;0.00;0.00;;;;;;;;;;5045797;28;20048;-92
2023/10/18 02:30:24;;;;;;;0.00;0.00;;;;;;;;;;5022407;28;20041;-92
2023/10/18 02:32:50;;;;;;;0.00;0.00;;;;;;;;;;5015626;28;20052;-94
2023/10/18 02:35:19;;;;;;;0.00;0.00;;;;;;;;;;5054977;28;20063;-90
2023/10/18 02:37:44;;;;;;;0.00;0.00;;;;;;;;;;5020476;28;20032;-91
2023/10/18 02:40:28;;;;;;;0.00;0.00;;;;;;;;;;5037863;28;20370;-92
2023/10/18 02:42:55;;;;;;;0.00;0.00;;;;;;;;;;5038834;28;20033;-92
2023/10/18 02:45:22;;;;;;;0.00;0.00;;;;;;;;;;5055382;28;20429;-93
2023/10/18 02:47:51;;;;;;;0.00;0.00;;;;;;;;;;5045914;28;20048;-93
2023/10/18 02:50:18;;;;;;;0.00;0.00;;;;;;;;;;5065800;28;20028;-91
2023/10/18 02:52:46;;;;;;;0.00;0.00;;;;;;;;;;5059376;28;20082;-92
2023/10/18 02:55:18;;;;;;;0.00;0.00;;;;;;;;;;5039717;28;20025;-90
2023/10/18 02:57:46;;;;;;;0.00;0.00;;;;;;;;;;5075611;28;20028;-92
2023/10/18 03:00:13;;;;;;;0.00;0.00;;;;;;;;;;5075871;28;20034;-91
2023/10/18 03:02:39;;;;;;;0.00;0.00;;;;;;;;;;5060289;28;20024;-89
2023/10/18 03:05:08;;;;;;;0.00;0.00;;;;;;;;;;5039175;28;20048;-88
2023/10/18 03:07:34;;;;;;;0.00;0.00;;;;;;;;;;5055600;28;20021;-87
2023/10/18 03:10:19;;;;;;;0.00;0.00;;;;;;;;;;5075429;28;20370;-91
2023/10/18 03:12:44;;;;;;;0.00;0.00;;;;;;;;;;5073383;28;20024;-91
2023/10/18 03:15:14;;;;;;;0.00;0.00;;;;;;;;;;5055445;28;20377;-90
2023/10/18 03:17:39;;;;;;;0.00;0.00;;;;;;;;;;5056482;28;20025;-93
2023/10/18 03:23:03;;;;;;;0.00;0.00;;;;;;;;;;5015274;28;20123;-88
2023/10/18 03:25:31;;;;;;;0.00;0.00;;;;;;;;;;5044776;28;20052;-94
2023/10/18 03:28:04;;;;;;;0.00;0.00;;;;;;;;;;5043745;28;20036;-87
2023/10/18 03:30:46;;;;;;;0.00;0.00;;;;;;;;;;5043538;28;20596;-92
2023/10/18 03:33:14;;;;;;;0.00;0.00;;;;;;;;;;5067004;28;20025;-93
2023/10/18 03:35:40;;;;;;;0.00;0.00;;;;;;;;;;5062109;28;20025;-90
2023/10/18 03:38:21;;;;;;;0.00;0.00;;;;;;;;;;5059353;28;20029;-89
2023/10/18 03:40:49;;;;;;;0.00;0.00;;;;;;;;;;5045631;28;20028;-86
2023/10/18 03:43:16;;;;;;;0.00;0.00;;;;;;;;;;5058991;28;20029;-88
2023/10/18 03:48:27;;;;;;;0.00;0.00;;;;;;;;;;5064565;28;20477;-91
2023/10/18 03:50:55;;;;;;;0.00;0.00;;;;;;;;;;5061086;28;20016;-89
2023/10/18 03:53:21;;;;;;;0.00;0.00;;;;;;;;;;5030218;28;20048;-89
2023/10/18 03:55:49;;;;;;;0.00;0.00;;;;;;;;;;5058575;28;20080;-87
2023/10/18 03:58:24;;;;;;;0.00;0.00;;;;;;;;;;5066558;28;20032;-92
2023/10/18 04:00:56;;;;;;;0.00;0.00;;;;;;;;;;5064283;28;20032;-89
2023/10/18 04:03:27;;;;;;;0.00;0.00;;;;;;;;;;5075083;28;20083;-89
2023/10/18 04:05:54;;;;;;;0.00;0.00;;;;;;;;;;5059570;28;20036;-90
2023/10/18 04:08:20;;;;;;;0.00;0.00;;;;;;;;;;5096648;28;20016;-92
2023/10/18 04:10:55;;;;;;;0.00;0.00;;;;;;;;;;5076377;28;20097;-88
2023/10/18 04:13:24;;;;;;;0.00;0.00;;;;;;;;;;5069510;28;20028;-92
2023/10/18 04:15:59;;;;;;;0.00;0.00;;;;;;;;;;5080503;28;20024;-93
2023/10/18 04:18:35;;;;;;;0.00;0.00;;;;;;;;;;5053225;28;20087;-88
2023/10/18 04:21:05;;;;;;;0.00;0.00;;;;;;;;;;5059462;28;20098;-87
2023/10/18 04:23:34;;;;;;;0.00;0.00;;;;;;;;;;5025480;28;20024;-91
2023/10/18 04:26:05;;;;;;;0.00;0.00;;;;;;;;;;5041214;28;20043;-90
2023/10/18 04:28:37;;;;;;;0.00;0.00;;;;;;;;;;5042037;28;20369;-77
2023/10/18 04:31:04;;;;;;;0.00;0.00;;;;;;;;;;5041618;28;20413;-79
2023/10/18 04:33:36;;;;;;;0.00;0.00;;;;;;;;;;5025206;28;20039;-86
2023/10/18 04:36:10;;;;;;;0.00;0.00;;;;;;;;;;5055193;28;20056;-84
2023/10/18 04:38:42;;;;;;;0.00;0.00;;;;;;;;;;5053687;28;20496;-85
2023/10/18 04:41:08;;;;;;;0.00;0.00;;;;;;;;;;5075609;28;20046;-84
2023/10/18 04:43:34;;;;;;;0.00;0.00;;;;;;;;;;5046562;28;20033;-85
2023/10/18 04:46:07;;;;;;;0.00;0.00;;;;;;;;;;5041875;28;20041;-83
2023/10/18 04:54:11;;;;;;;0.00;0.00;;;;;;;;;;5056186;28;20064;-84
2023/10/18 04:56:46;;;;;;;0.00;0.00;;;;;;;;;;5034961;28;20036;-83
2023/10/18 05:01:58;;;;;;;0.00;0.00;;;;;;;;;;5051819;28;20036;-86
2023/10/18 05:04:37;;;;;;;0.00;0.00;;;;;;;;;;5049469;28;20025;-85
2023/10/18 05:07:49;;;;;;;0.00;0.00;;;;;;;;;;5052750;28;20036;-83
2023/10/18 05:10:36;;;;;;;0.00;0.00;;;;;;;;;;5001978;28;20034;-81
2023/10/18 05:13:49;;;;;;;0.00;0.00;;;;;;;;;;5043084;28;20045;-84
2023/10/18 05:15:51;;;;;;;0.00;0.00;;;;;;;;;;5047651;28;20147;-85
2023/10/18 05:18:17;;;;;;;0.00;0.00;;;;;;;;;;5043798;28;20033;-79
2023/10/18 05:23:19;;;;;;;0.00;0.00;;;;;;;;;;5065532;28;20025;-79
2023/10/18 05:25:45;;;;;;;0.00;0.00;;;;;;;;;;5061462;28;20064;-78
2023/10/18 05:28:18;;;;;;;0.00;0.00;;;;;;;;;;5043618;28;20047;-81
2023/10/18 05:38:48;;;;;;;0.00;0.00;;;;;;;;;;5045367;28;20342;-82
2023/10/18 05:49:47;;;;;;;0.00;0.00;;;;;;;;;;5377452;22;20090;-81
2023/10/18 05:54:43;;;;;;;0.00;0.00;;;;;;;;;;5066844;28;20119;-83
2023/10/18 05:57:15;;;;;;;0.00;0.00;;;;;;;;;;5059642;28;20123;-84
2023/10/18 05:59:41;;;;;;;0.00;0.00;;;;;;;;;;5073477;22;20040;-83
2023/10/18 06:02:10;;;;;;;0.63;0.00;;;;;;;;;;5082447;28;20036;-83
2023/10/18 06:04:42;;;;;;;0.00;0.00;;;;;;;;;;5073385;28;20025;-80
2023/10/18 06:07:11;;;;;;;0.00;0.00;;;;;;;;;;5061234;28;20032;-81
2023/10/18 06:12:27;;;;;;;0.00;0.00;;;;;;;;;;5064582;28;20031;-80
2023/10/18 06:14:53;;;;;;;0.00;0.00;;;;;;;;;;5068674;28;20039;-83
2023/10/18 06:20:14;;;;;;;0.00;0.00;;;;;;;;;;5074428;28;20063;-79
2023/10/18 06:22:43;;;;;;;0.00;0.00;;;;;;;;;;5071059;28;20552;-81
2023/10/18 06:25:34;;;;;;;0.00;0.00;;;;;;;;;;5071649;28;20024;-81
2023/10/18 06:28:09;;;;;;;0.00;0.00;;;;;;;;;;5063665;28;20032;-82
2023/10/18 06:30:41;;;;;;;0.00;0.00;;;;;;;;;;5063614;28;20035;-81
2023/10/18 06:33:22;;;;;;;0.00;0.00;;;;;;;;;;5068687;28;20717;-83
2023/10/18 06:35:53;;;;;;;0.00;0.00;;;;;;;;;;5053967;28;20050;-84
2023/10/18 06:38:23;;;;;;;0.00;0.00;;;;;;;;;;5076744;28;20029;-84
2023/10/18 06:40:53;;;;;;;0.00;0.00;;;;;;;;;;5090001;28;20050;-87
2023/10/18 06:43:22;;;;;;;0.00;0.00;;;;;;;;;;5063190;28;20290;-88
2023/10/18 06:45:51;;;;;;;0.00;0.00;;;;;;;;;;5076074;28;20077;-85
2023/10/18 06:48:17;;;;;;;0.00;0.00;;;;;;;;;;5055743;28;20016;-85
2023/10/18 06:50:46;;;;;;;0.00;0.00;;;;;;;;;;5065146;28;20029;-85
2023/10/18 06:53:15;;;;;;;0.00;0.00;;;;;;;;;;5052648;28;20163;-85
2023/10/18 06:55:45;;;;;;;0.00;0.00;;;;;;;;;;5055100;28;20017;-84
2023/10/18 07:00:43;;;;;;;0.00;0.00;;;;;;;;;;5086976;28;20037;-86
2023/10/18 07:03:34;;;;;;;0.00;0.00;;;;;;;;;;5034417;28;21311;-84
2023/10/18 07:06:04;;;;;;;0.00;0.00;;;;;;;;;;5026326;28;20025;-89
2023/10/18 07:08:32;;;;;;;0.00;0.00;;;;;;;;;;5031383;28;20039;-87
2023/10/18 07:11:08;;;;;;;0.00;0.00;;;;;;;;;;5046363;28;20040;-88
2023/10/18 07:13:33;;;;;;;0.00;0.00;;;;;;;;;;5043166;28;20029;-84
2023/10/18 07:16:12;;;;;;;0.00;0.00;;;;;;;;;;5026448;28;20120;-83
2023/10/18 07:18:38;;;;;;;0.00;0.00;;;;;;;;;;5047887;28;20060;-83
2023/10/18 07:21:13;;;;;;;0.00;0.00;;;;;;;;;;5025400;28;20053;-89
2023/10/18 07:23:40;;;;;;;0.00;0.00;;;;;;;;;;5051804;28;20025;-82
2023/10/18 07:26:15;;;;;;;0.00;0.00;;;;;;;;;;5060123;28;20089;-83
2023/10/18 07:28:41;;;;;;;0.00;0.00;;;;;;;;;;5047978;22;20080;-89
2023/10/18 07:31:17;;;;;;;0.00;0.00;;;;;;;;;;4977124;28;20026;-86
2023/10/18 07:33:50;;;;;;;0.00;0.00;;;;;;;;;;5018317;28;20178;-87
2023/10/18 07:36:19;;;;;;;0.00;0.00;;;;;;;;;;5011296;28;20081;-88
2023/10/18 07:38:47;;;;;;;0.00;0.00;;;;;;;;;;5010944;28;20085;-86
2023/10/18 07:41:18;;;;;;;0.00;0.00;;;;;;;;;;5010145;28;20423;-87
2023/10/18 07:43:44;;;;;;;0.00;0.00;;;;;;;;;;4988066;28;20034;-87
2023/10/18 07:46:16;;;;;;;0.00;0.00;;;;;;;;;;4993702;28;20030;-87
2023/10/18 07:48:48;;;;;;;0.00;0.00;;;;;;;;;;5010802;28;20037;-86
2023/10/18 07:51:23;;;;;;;0.00;0.00;;;;;;;;;;5026658;28;20039;-84
2023/10/18 07:53:55;;;;;;;0.00;0.00;;;;;;;;;;5009772;28;20036;-86
2023/10/18 07:56:27;;;;;;;0.00;0.00;;;;;;;;;;4985187;28;20022;-84
2023/10/18 07:59:27;;;;;;;0.00;0.00;;;;;;;;;;5007423;28;20045;-84
2023/10/18 08:01:47;;;;;;;0.00;0.00;;;;;;;;;;5023577;28;20030;-84
2023/10/18 08:04:17;;;;;;;0.00;0.00;;;;;;;;;;4980245;28;20069;-84
2023/10/18 08:06:45;;;;;;;0.00;0.00;;;;;;;;;;5008207;28;20029;-87
2023/10/18 08:09:28;;;;;;;0.00;0.00;;;;;;;;;;5016982;28;20041;-89
2023/10/18 08:11:54;;;;;;;0.00;0.00;;;;;;;;;;5039105;28;20021;-87
2023/10/18 08:14:24;;;;;;;0.00;0.00;;;;;;;;;;5019982;28;20025;-89
2023/10/18 08:16:55;;;;;;;0.00;0.00;;;;;;;;;;4996425;28;20218;-90
2023/10/18 08:19:25;;;;;;;0.00;0.00;;;;;;;;;;5021296;28;20053;-93
2023/10/18 08:24:35;;;;;;;0.00;0.00;;;;;;;;;;5035813;28;20041;-90
2023/10/18 08:27:09;;;;;;;0.00;0.00;;;;;;;;;;5037018;28;20036;-89
2023/10/18 08:29:41;;;;;;;0.00;0.00;;;;;;;;;;5038376;28;20105;-88
2023/10/18 08:32:14;;;;;;;0.00;0.00;;;;;;;;;;5014053;28;20022;-89
2023/10/18 08:34:44;;;;;;;0.00;0.00;;;;;;;;;;5033854;28;20469;-88
2023/10/18 08:37:13;;;;;;;0.00;0.00;;;;;;;;;;5034522;28;20044;-91
2023/10/18 08:40:06;;;;;;;0.00;0.00;;;;;;;;;;4998532;28;20033;-87
2023/10/18 08:42:39;;;;;;;0.00;0.00;;;;;;;;;;5020474;28;20037;-89
2023/10/18 08:45:09;;;;;;;0.00;0.00;;;;;;;;;;5029744;28;20407;-86
2023/10/18 08:47:35;;;;;;;0.00;0.00;;;;;;;;;;5040524;28;20029;-86
2023/10/18 08:50:00;;;;;;;0.00;0.00;;;;;;;;;;4993615;28;20120;-88
2023/10/18 08:52:28;;;;;;;0.00;0.00;;;;;;;;;;5009121;28;20030;-88
2023/10/18 08:54:53;;;;;;;0.00;0.00;;;;;;;;;;5010999;28;20091;-87
2023/10/18 08:57:34;;;;;;;0.00;0.00;;;;;;;;;;5008817;28;20061;-88
2023/10/18 09:01:05;;;;;;;0.00;0.00;;;;;;;;;;5044102;28;20064;-86
2023/10/18 09:03:10;;;;;;;0.00;0.00;;;;;;;;;;5051797;28;20041;-87
2023/10/18 09:05:41;;;;;;;0.00;0.00;;;;;;;;;;5053963;28;20048;-86
2023/10/18 09:08:14;;;;;;;0.00;0.00;;;;;;;;;;5049519;28;20036;-90
2023/10/18 09:18:16;;;;;;;0.00;0.00;;;;;;;;;;5024932;28;20076;-84
2023/10/18 09:20:42;;;;;;;0.00;0.00;;;;;;;;;;5042584;28;20026;-84
2023/10/18 09:23:16;;;;;;;0.00;0.00;;;;;;;;;;5044594;28;20038;-84
2023/10/18 09:25:50;;;;;;;0.00;0.00;;;;;;;;;;5018816;28;20026;-86
2023/10/18 09:28:32;;;;;;;0.00;0.00;;;;;;;;;;5021879;28;20052;-86
2023/10/18 09:31:11;;;;;;;0.00;0.00;;;;;;;;;;5022298;28;20037;-82
2023/10/18 09:33:48;;;;;;;0.00;0.00;;;;;;;;;;4987438;28;20022;-85
2023/10/18 09:36:51;;;;;;;0.00;0.00;;;;;;;;;;5016618;28;20128;-85
2023/10/18 09:39:21;;;;;;;0.00;0.00;;;;;;;;;;5053048;28;20061;-90
2023/10/18 09:41:48;;;;;;;0.00;0.00;;;;;;;;;;5005622;28;20486;-86
2023/10/18 09:44:18;;;;;;;0.00;0.00;;;;;;;;;;5005586;28;20036;-88
2023/10/18 09:46:48;;;;;;;0.00;0.00;;;;;;;;;;4988379;28;20025;-87
2023/10/18 09:49:28;;;;;;;0.00;0.00;;;;;;;;;;5001753;28;20409;-84
2023/10/18 09:51:55;;;;;;;0.00;0.00;;;;;;;;;;5014352;28;20613;-86
2023/10/18 09:54:22;;;;;;;0.00;0.00;;;;;;;;;;4998204;28;20402;-88
2023/10/18 09:56:54;;;;;;;0.00;0.00;;;;;;;;;;4982041;28;20021;-87
2023/10/18 09:59:26;;;;;;;0.00;0.00;;;;;;;;;;5002414;28;20121;-85
2023/10/18 10:04:23;;;;;;;0.00;0.00;;;;;;;;;;5019927;28;20429;-85
2023/10/18 10:06:55;;;;;;;0.00;0.00;;;;;;;;;;5032621;28;20039;-85
2023/10/18 10:09:29;;;;;;;0.00;0.00;;;;;;;;;;4973667;28;20103;-86
2023/10/18 10:11:54;;;;;;;0.00;0.00;;;;;;;;;;4980529;28;20046;-88
2023/10/18 10:14:23;;;;;;;0.00;0.00;;;;;;;;;;4994718;28;20458;-84
2023/10/18 10:16:56;;;;;;;0.30;0.00;;;;;;;;;;5037245;28;20037;-86
2023/10/18 10:19:32;;;;;;;0.00;0.00;;;;;;;;;;5020750;28;20041;-84
2023/10/18 10:22:07;;;;;;;0.00;0.00;;;;;;;;;;5001168;28;20119;-86
2023/10/18 10:24:42;;;;;;;0.00;0.00;;;;;;;;;;4988554;28;20022;-87
2023/10/18 10:32:48;;;;;;;0.00;0.00;;;;;;;;;;5018841;28;20045;-88
2023/10/18 10:35:17;;;;;;;0.00;0.00;;;;;;;;;;5023847;28;20029;-84
2023/10/18 10:37:47;;;;;;;0.00;0.00;;;;;;;;;;4982476;28;20049;-84
2023/10/18 10:40:35;;;;;;;0.00;0.00;;;;;;;;;;4992876;28;20392;-83
2023/10/18 10:43:11;;;;;;;0.00;0.00;;;;;;;;;;4965452;28;20404;-83
2023/10/18 10:48:15;;;;;;;0.00;0.00;;;;;;;;;;5009496;28;20399;-84
2023/10/18 10:50:51;;;;;;;0.00;0.00;;;;;;;;;;5049070;28;20656;-84
2023/10/18 10:53:43;;;;;;;0.00;0.00;;;;;;;;;;5031320;28;20033;-83
2023/10/18 10:56:18;;;;;;;0.00;0.00;;;;;;;;;;5050610;28;20021;-83
2023/10/18 10:59:02;;;;;;;0.00;0.00;;;;;;;;;;5051182;28;20466;-83
2023/10/18 11:01:40;;;;;;;0.00;0.00;;;;;;;;;;5050753;28;20064;-84
2023/10/18 11:04:15;;;;;;;0.10;0.00;;;;;;;;;;5051387;28;20025;-84
2023/10/18 11:06:43;;;;;;;0.00;0.00;;;;;;;;;;5017631;28;20033;-84
2023/10/18 11:09:15;;;;;;;0.00;0.00;;;;;;;;;;5033685;28;20025;-84
2023/10/18 11:11:43;;;;;;;0.00;0.00;;;;;;;;;;5012281;28;20033;-84
2023/10/18 11:14:09;;;;;;;0.00;0.00;;;;;;;;;;4995390;28;20120;-83
2023/10/18 11:16:36;;;;;;;0.00;0.00;;;;;;;;;;4996444;28;20172;-85
2023/10/18 11:19:02;;;;;;;0.00;0.00;;;;;;;;;;4996577;28;20033;-84
2023/10/18 11:21:30;;;;;;;0.00;0.00;;;;;;;;;;5000033;28;20033;-82
2023/10/18 11:24:04;;;;;;;0.00;0.00;;;;;;;;;;4999613;28;20498;-83
2023/10/18 11:26:33;;;;;;;0.00;0.00;;;;;;;;;;5015503;28;20026;-83
2023/10/18 11:29:05;;;;;;;0.10;0.00;;;;;;;;;;5023165;28;20041;-80
2023/10/18 11:31:31;;;;;;;0.00;0.00;;;;;;;;;;5021908;28;20025;-83
2023/10/18 11:34:05;;;;;;;0.00;0.00;;;;;;;;;;5017396;28;20040;-82
2023/10/18 11:36:34;;;;;;;0.00;0.00;;;;;;;;;;4998403;28;20040;-84
2023/10/18 11:39:18;;;;;;;0.00;0.00;;;;;;;;;;5031106;28;20028;-84
2023/10/18 11:41:52;;;;;;;0.00;0.00;;;;;;;;;;5016045;28;20204;-82
2023/10/18 11:44:31;;;;;;;0.00;0.00;;;;;;;;;;5015114;28;20174;-84
2023/10/18 11:47:11;;;;;;;0.00;0.00;;;;;;;;;;5015925;28;20025;-82
2023/10/18 11:49:39;;;;;;;;;;;;;;;;;;5020132;28;20029;-83
2023/10/18 11:52:06;;;;;;;0.00;0.00;;;;;;;;;;5025553;28;19920;-83
2023/10/18 11:54:34;;;;;;;0.00;0.00;;;;;;;;;;5003972;28;20029;-81
2023/10/18 11:57:00;;;;;;;0.00;0.00;;;;;;;;;;5003509;28;20032;-83
2023/10/18 11:59:26;;;;;;;0.00;0.00;;;;;;;;;;5036246;28;20040;-84
2023/10/18 12:01:59;;;;;;;0.00;0.00;;;;;;;;;;5015883;28;20029;-84
2023/10/18 12:04:27;;;;;;;0.00;0.00;;;;;;;;;;5001544;28;20037;-83
2023/10/18 12:06:56;;;;;;;0.00;0.00;;;;;;;;;;4999951;28;20416;-83
2023/10/18 12:09:51;;;;;;;0.00;0.00;;;;;;;;;;5013079;28;20063;-83
2023/10/18 12:12:19;;;;;;;0.08;0.00;;;;;;;;;;5054919;28;20041;-82
2023/10/18 12:14:48;;;;;;;0.10;0.00;;;;;;;;;;5004640;28;20037;-85
2023/10/18 12:17:14;;;;;;;0.00;0.00;;;;;;;;;;5018505;28;20029;-85
2023/10/18 12:19:40;;;;;;;0.00;0.00;;;;;;;;;;5001394;28;20303;-84
2023/10/18 12:22:08;;;;;;;0.00;0.00;;;;;;;;;;5001997;28;20041;-85
2023/10/18 12:24:34;;;;;;;0.00;0.00;;;;;;;;;;5018339;28;20080;-84
2023/10/18 12:27:19;;;;;;;0.00;0.00;;;;;;;;;;5018065;28;20029;-85
2023/10/18 12:29:45;;;;;;;0.00;0.00;;;;;;;;;;4990330;28;20045;-83
2023/10/18 12:32:26;;;;;;;0.00;0.00;;;;;;;;;;5017733;28;20033;-84
2023/10/18 12:35:07;;;;;;;0.00;0.00;;;;;;;;;;5018845;28;20026;-83
2023/10/18 12:40:27;;;;;;;0.00;0.00;;;;;;;;;;5100375;22;20125;-83
2023/10/18 12:43:05;;;;;;;0.00;0.00;;;;;;;;;;5047824;28;20055;-84
2023/10/18 12:45:42;;;;;;;0.00;0.00;;;;;;;;;;5061470;28;20024;-85
2023/10/18 12:48:09;;;;;;;0.22;0.00;;;;;;;;;;5061618;28;20020;-83
2023/10/18 12:50:35;;;;;;;0.00;0.00;;;;;;;;;;5077706;28;20035;-83
2023/10/18 12:53:17;;;;;;;0.00;0.00;;;;;;;;;;5095532;28;20057;-83
2023/10/18 12:55:44;;;;;;;0.00;0.00;;;;;;;;;;5059873;28;20031;-83
2023/10/18 12:58:10;;;;;;;0.00;0.00;;;;;;;;;;5060293;28;20060;-84
2023/10/18 13:00:44;;;;;;;0.00;0.00;;;;;;;;;;5060620;28;20028;-84
2023/10/18 13:05:42;;;;;;;0.00;0.00;;;;;;;;;;5077993;28;20024;-83
2023/10/18 13:08:22;;;;;;;0.00;0.00;;;;;;;;;;5077069;28;20069;-83
2023/10/18 13:10:57;;;;;;;0.00;0.00;;;;;;;;;;5077234;28;20274;-83
2023/10/18 13:13:23;;;;;;;0.00;0.00;;;;;;;;;;5061732;28;20024;-84
2023/10/18 13:15:48;;;;;;;0.00;0.00;;;;;;;;;;5060888;28;20027;-84
2023/10/18 13:18:14;;;;;;;0.00;0.00;;;;;;;;;;5072425;28;20024;-83
2023/10/18 13:20:43;;;;;;;0.00;0.00;;;;;;;;;;5063844;28;20031;-83
2023/10/18 13:23:09;;;;;;;0.00;0.00;;;;;;;;;;5080926;28;20020;-83
2023/10/18 13:25:37;;;;;;;0.00;0.00;;;;;;;;;;5097123;28;20035;-84
2023/10/18 13:28:05;;;;;;;0.00;0.00;;;;;;;;;;5081166;28;20338;-84
2023/10/18 13:30:43;;;;;;;0.00;0.00;;;;;;;;;;5080446;28;20024;-83
2023/10/18 13:33:12;;;;;;;0.00;0.00;;;;;;;;;;5083677;28;20027;-82
2023/10/18 13:35:39;;;;;;;0.00;0.00;;;;;;;;;;5064331;28;20031;-84
2023/10/18 13:38:05;;;;;;;0.00;0.00;;;;;;;;;;5114679;28;20472;-83
2023/10/18 13:40:36;;;;;;;0.00;0.00;;;;;;;;;;5097287;28;20373;-83
2023/10/18 13:43:06;;;;;;;0.00;0.00;;;;;;;;;;5081533;28;20031;-84
2023/10/18 13:45:33;;;;;;;;;;;;;;;;;;5081473;28;20031;-84
2023/10/18 13:48:02;;;;;;;0.00;0.00;;;;;;;;;;5080032;28;19912;-83
2023/10/18 13:50:38;;;;;;;0.00;0.00;;;;;;;;;;5097027;28;20468;-82
2023/10/18 13:53:04;;;;;;;0.00;0.00;;;;;;;;;;5097955;28;20122;-81
2023/10/18 13:55:30;;;;;;;0.00;0.00;;;;;;;;;;5074538;28;20062;-83
2023/10/18 13:57:57;;;;;;;0.00;0.00;;;;;;;;;;5053116;28;20423;-84
2023/10/18 14:00:22;;;;;;;0.00;0.00;;;;;;;;;;5072811;28;20112;-84
2023/10/18 14:02:48;;;;;;;0.00;0.00;;;;;;;;;;5072995;28;20127;-83
2023/10/18 14:05:14;;;;;;;0.00;0.00;;;;;;;;;;5040162;28;20062;-83
2023/10/18 14:07:41;;;;;;;0.10;0.00;;;;;;;;;;5041448;28;20040;-84
2023/10/18 14:10:28;;;;;;;0.00;0.00;;;;;;;;;;5056584;28;20071;-84
2023/10/18 14:12:53;;;;;;;0.00;0.00;;;;;;;;;;5059488;28;20391;-84
2023/10/18 14:15:21;;;;;;;0.00;0.00;;;;;;;;;;5053678;28;20028;-82
2023/10/18 14:17:47;;;;;;;0.00;0.00;;;;;;;;;;5079953;28;20012;-82
2023/10/18 14:20:13;;;;;;;0.32;0.00;;;;;;;;;;5075138;28;20038;-84
2023/10/18 14:22:39;;;;;;;0.00;0.00;;;;;;;;;;5094882;28;20028;-81
2023/10/18 14:25:08;;;;;;;0.00;0.00;;;;;;;;;;5085993;28;20067;-81
2023/10/18 14:27:35;;;;;;;0.00;0.00;;;;;;;;;;5096838;28;20023;-84
2023/10/18 14:30:02;;;;;;;0.00;0.00;;;;;;;;;;5079939;28;20032;-84
2023/10/18 14:32:28;;;;;;;0.00;0.00;;;;;;;;;;5079951;28;20031;-84
2023/10/18 14:34:54;;;;;;;0.00;0.00;;;;;;;;;;5079552;28;20039;-84
2023/10/18 14:37:22;;;;;;;0.00;0.00;;;;;;;;;;5079718;28;20024;-83
2023/10/18 14:39:48;;;;;;;0.00;0.00;;;;;;;;;;5079756;28;20453;-83
2023/10/18 14:42:14;;;;;;;0.00;0.00;;;;;;;;;;5079392;28;20111;-83
2023/10/18 14:44:39;;;;;;;0.00;0.00;;;;;;;;;;5096548;28;20389;-83
2023/10/18 14:47:06;;;;;;;0.00;0.00;;;;;;;;;;5096259;28;20024;-83
2023/10/18 14:49:32;;;;;;;0.00;0.00;;;;;;;;;;5096033;28;20051;-83
2023/10/18 14:51:58;;;;;;;0.00;0.00;;;;;;;;;;5078899;28;20096;-83
2023/10/18 14:54:23;;;;;;;0.00;0.00;;;;;;;;;;5056377;28;20181;-83
2023/10/18 14:56:49;;;;;;;0.00;0.00;;;;;;;;;;5058738;28;20559;-83
2023/10/18 14:59:14;;;;;;;0.00;0.00;;;;;;;;;;5075500;28;20035;-83
2023/10/18 15:01:40;;;;;;;0.00;0.00;;;;;;;;;;5075779;28;20438;-83
2023/10/18 15:04:07;;;;;;;0.00;0.00;;;;;;;;;;5058603;28;20028;-83
2023/10/18 15:06:37;;;;;;;0.00;0.00;;;;;;;;;;5093633;28;20035;-83
2023/10/18 15:09:02;;;;;;;;;;;;;;;;;;5060400;28;20170;-84
2023/10/18 15:11:28;;;;;;;0.00;0.00;;;;;;;;;;5075574;28;19940;-83
2023/10/18 15:13:54;;;;;;;0.30;0.00;;;;;;;;;;5075322;28;20024;-83
2023/10/18 15:16:19;;;;;;;0.00;0.00;;;;;;;;;;5075380;28;20062;-83
2023/10/18 15:18:46;;;;;;;0.00;0.00;;;;;;;;;;5092864;28;20032;-82
2023/10/18 15:21:13;;;;;;;0.00;0.00;;;;;;;;;;5083333;28;20020;-84
2023/10/18 15:23:38;;;;;;;0.00;0.00;;;;;;;;;;5064389;28;20024;-84
2023/10/18 15:26:04;;;;;;;0.00;0.00;;;;;;;;;;5062695;28;20031;-84
2023/10/18 15:28:31;;;;;;;0.00;0.00;;;;;;;;;;5079280;28;20118;-84
2023/10/18 15:31:10;;;;;;;0.00;0.00;;;;;;;;;;5079607;28;20031;-84
2023/10/18 15:33:40;;;;;;;0.00;0.00;;;;;;;;;;5062190;28;20114;-83
2023/10/18 15:36:19;;;;;;;0.00;0.00;;;;;;;;;;5079135;28;20411;-82
2023/10/18 15:38:45;;;;;;;0.08;0.00;;;;;;;;;;5045862;28;20478;-83
2023/10/18 15:41:11;;;;;;;0.00;0.00;;;;;;;;;;5078899;28;20059;-82
2023/10/18 15:43:43;;;;;;;0.00;0.00;;;;;;;;;;5062699;28;20511;-83
2023/10/18 15:46:10;;;;;;;0.00;0.00;;;;;;;;;;5063022;28;20063;-84
2023/10/18 15:48:35;;;;;;;0.32;0.00;;;;;;;;;;5079117;28;20032;-84
2023/10/18 15:51:01;;;;;;;0.00;0.00;;;;;;;;;;5062180;28;20091;-83
2023/10/18 15:53:28;;;;;;;0.00;0.00;;;;;;;;;;5062258;28;20119;-83
2023/10/18 15:55:54;;;;;;;0.00;0.00;;;;;;;;;;5046034;28;20056;-83
2023/10/18 15:58:19;;;;;;;0.00;0.00;;;;;;;;;;5045689;28;20032;-83
2023/10/18 16:00:45;;;;;;;0.00;0.00;;;;;;;;;;5061904;28;20036;-84
2023/10/18 16:03:13;;;;;;;0.00;0.00;;;;;;;;;;5061700;28;20055;-84
2023/10/18 16:05:38;;;;;;;0.00;0.00;;;;;;;;;;5062642;28;20028;-83
2023/10/18 16:08:04;;;;;;;0.00;0.00;;;;;;;;;;5061836;28;20035;-84
2023/10/18 16:10:33;;;;;;;0.00;0.00;;;;;;;;;;5061916;28;20468;-84
2023/10/18 16:12:58;;;;;;;0.08;0.00;;;;;;;;;;5061768;28;20051;-83